NMSU Main Campus

2021-01-22 06:40:00

  • imperial
Date Time Air Temperature Relative Humidity Dewpoint Heat Index Wind Speed Wind Dir. Rain Solar Radiation Soil Temperature
2m 2m 3m 3m 10cm
US/Mountain F % F F MPH deg in MJ/m^2 F
max avg avg
2021-01-21 06:50:00 41.9 91.9 39.8 41.9 1.7 1.7 0.4 327.2 320.4 0.00 0.0000121 46.5
2021-01-21 06:55:00 41.9 91.7 39.7 41.9 0.0 2.1 1.5 326.1 316.2 0.00 0.0000865 46.5
2021-01-21 07:00:00 42.1 91.5 39.8 42.1 0.0 1.5 0.6 297.0 324.5 0.00 0.0002274 46.4
2021-01-21 07:05:00 42.1 91.0 39.7 42.1 0.0 0.0 0.0 292.8 0.0 0.00 0.0004407 46.4
2021-01-21 07:10:00 42.1 91.1 39.7 42.1 0.0 0.0 0.0 152.4 0.0 0.00 0.0007123 46.4
2021-01-21 07:15:00 42.0 91.3 39.7 42.0 0.0 0.0 0.0 146.6 0.0 0.00 0.0015111 46.4
2021-01-21 07:20:00 41.9 91.8 39.7 41.9 0.0 0.0 0.0 206.9 0.0 0.00 0.0046782 46.4
2021-01-21 07:25:00 42.0 92.5 40.0 42.0 0.0 0.0 0.0 192.8 0.0 0.00 0.0047284 46.4
2021-01-21 07:30:00 42.2 93.0 40.3 42.2 1.5 1.5 0.2 148.3 134.0 0.00 0.0051369 46.4
2021-01-21 07:35:00 42.1 93.0 40.2 42.1 0.0 1.3 0.4 251.8 146.9 0.00 0.0079940 46.3
2021-01-21 07:40:00 42.2 93.4 40.4 42.2 1.2 1.5 1.0 271.1 261.4 0.00 0.0098993 46.3
2021-01-21 07:45:00 42.3 93.4 40.5 42.3 0.0 0.8 0.1 294.4 270.4 0.00 0.0166057 46.3
2021-01-21 07:50:00 42.9 92.9 41.0 42.9 0.0 0.0 0.0 294.2 0.0 0.00 0.0198292 46.4
2021-01-21 07:55:00 42.9 91.8 40.7 42.9 2.1 2.2 0.8 202.4 202.5 0.00 0.0258556 46.3
2021-01-21 08:00:00 43.2 92.2 41.1 43.2 2.1 2.2 1.2 222.1 204.4 0.00 0.0201896 46.3
2021-01-21 08:05:00 43.3 91.0 40.9 43.3 0.0 2.1 0.8 215.5 215.9 0.00 0.0145495 46.3
2021-01-21 08:10:00 43.5 91.1 41.0 43.5 1.9 3.3 2.0 239.5 227.0 0.00 0.0125252 46.3
2021-01-21 08:15:00 43.6 91.2 41.2 43.6 1.2 2.8 1.1 216.8 228.0 0.00 0.0123522 46.3
2021-01-21 08:20:00 43.5 90.9 41.0 43.5 1.0 2.2 1.2 252.4 218.3 0.00 0.0149094 46.3
2021-01-21 08:25:00 43.6 91.1 41.2 43.6 1.2 2.4 1.5 183.2 231.5 0.00 0.0185370 46.3
2021-01-21 08:30:00 43.6 90.4 40.9 43.6 1.3 2.1 0.8 219.7 200.1 0.00 0.0175329 46.3
2021-01-21 08:35:00 43.8 90.6 41.3 43.8 1.0 1.7 0.7 158.5 205.1 0.00 0.0170377 46.3
2021-01-21 08:40:00 43.8 91.3 41.5 43.8 0.0 1.7 1.2 206.0 176.0 0.00 0.0184217 46.3
2021-01-21 08:45:00 43.8 89.9 41.0 43.8 1.3 1.9 1.0 155.5 170.6 0.00 0.0168018 46.3
2021-01-21 08:50:00 44.0 90.0 41.3 44.0 1.5 1.9 1.0 150.4 139.4 0.00 0.0204169 46.3
2021-01-21 08:55:00 43.9 90.8 41.4 43.9 0.8 2.1 1.2 232.9 158.9 0.00 0.0229559 46.3
2021-01-21 09:00:00 43.9 90.3 41.3 43.9 0.0 2.4 1.1 219.5 218.2 0.00 0.0262416 46.3
2021-01-21 09:05:00 44.3 90.4 41.7 44.3 1.2 1.7 0.7 194.3 234.8 0.00 0.0319012 46.4
2021-01-21 09:10:00 44.2 89.8 41.4 44.2 0.0 1.9 0.9 182.1 221.2 0.00 0.0312534 46.4
2021-01-21 09:15:00 44.5 89.8 41.7 44.5 0.8 1.3 0.3 202.5 205.7 0.00 0.0399083 46.4
2021-01-21 09:20:00 44.3 88.0 41.0 44.3 0.0 1.9 1.1 209.1 236.3 0.00 0.0406844 46.4
2021-01-21 09:25:00 44.7 89.9 41.9 44.7 1.3 2.1 0.9 190.7 200.8 0.00 0.0409724 46.4
2021-01-21 09:30:00 44.8 88.4 41.6 44.8 0.8 2.2 1.4 199.2 175.9 0.00 0.0362099 46.5
2021-01-21 09:35:00 44.6 88.3 41.4 44.6 0.0 2.4 1.0 186.2 189.5 0.00 0.0309967 46.5
2021-01-21 09:40:00 44.8 87.1 41.2 44.8 3.0 3.0 1.4 209.7 207.3 0.00 0.0433229 46.5
2021-01-21 09:45:00 44.8 88.7 41.7 44.8 1.3 3.1 1.6 169.6 195.3 0.00 0.0555396 46.5
2021-01-21 09:50:00 45.2 86.7 41.5 45.2 1.3 2.8 1.0 207.1 179.7 0.00 0.0266903 46.5
2021-01-21 09:55:00 45.4 87.3 41.9 45.4 2.8 3.5 2.0 218.8 209.4 0.00 0.0007383 46.6
2021-01-21 10:00:00 45.5 87.2 41.9 45.5 1.3 3.7 2.2 118.5 195.2 0.00 0.0058339 46.6
2021-01-21 10:05:00 45.7 88.3 42.5 45.7 0.0 2.6 1.1 159.1 175.0 0.00 0.0463506 46.6
2021-01-21 10:10:00 45.9 86.8 42.2 45.9 2.6 3.7 1.8 208.3 182.2 0.00 0.0493277 46.7
2021-01-21 10:15:00 46.2 87.3 42.7 46.2 2.1 3.0 2.0 134.0 167.3 0.00 0.0449674 46.7
2021-01-21 10:20:00 46.4 87.6 42.9 46.4 0.0 3.0 1.5 67.8 150.1 0.00 0.0394588 46.8
2021-01-21 10:25:00 46.5 87.9 43.1 46.5 1.3 3.0 0.9 165.3 147.8 0.00 0.0429886 46.8
2021-01-21 10:30:00 46.7 87.2 43.1 46.7 1.9 2.8 1.6 150.8 154.9 0.00 0.0484000 46.8
2021-01-21 10:35:00 46.7 86.5 42.9 46.7 2.4 3.7 1.8 187.6 145.4 0.00 0.0420933 46.9
2021-01-21 10:40:00 46.4 87.8 42.9 46.4 1.5 2.8 2.2 121.5 155.1 0.00 0.0343287 46.9
2021-01-21 10:45:00 46.4 89.5 43.4 46.4 2.8 3.5 2.1 117.2 133.1 0.00 0.0409656 47.0
2021-01-21 10:50:00 46.4 86.9 42.7 46.4 3.7 4.9 2.7 124.4 135.5 0.00 0.0635405 47.0
2021-01-21 10:55:00 46.4 87.8 43.0 46.4 4.4 4.6 3.2 175.6 139.3 0.00 0.0751809 47.0
2021-01-21 11:00:00 46.6 90.1 43.8 46.6 4.7 6.9 5.2 130.5 122.3 0.00 0.0948938 47.1
2021-01-21 11:05:00 47.3 87.3 43.7 47.3 1.7 6.2 2.6 71.7 137.6 0.00 0.0931699 47.1
2021-01-21 11:10:00 47.8 86.3 43.9 47.8 3.8 3.8 2.6 270.4 173.2 0.00 0.1308188 47.2
2021-01-21 11:15:00 48.0 82.9 43.0 48.0 2.8 5.8 3.4 246.1 237.0 0.00 0.0910307 47.2
2021-01-21 11:20:00 47.9 84.9 43.6 47.9 3.8 6.0 3.4 302.7 224.7 0.00 0.0674981 47.3
2021-01-21 11:25:00 47.7 86.8 44.0 47.7 3.8 5.6 3.7 281.5 249.6 0.00 0.0493237 47.3
2021-01-21 11:30:00 47.9 84.2 43.3 47.9 4.2 6.7 4.4 213.8 256.3 0.00 0.0451435 47.4
2021-01-21 11:35:00 48.0 83.8 43.4 48.0 3.5 4.2 3.2 249.0 248.4 0.00 0.0404593 47.4
2021-01-21 11:40:00 48.5 81.8 43.2 48.5 4.2 4.9 3.6 248.1 253.0 0.00 0.0485228 47.5
2021-01-21 11:45:00 48.5 80.1 42.6 48.5 4.7 5.3 3.8 209.9 218.8 0.00 0.0515586 47.6
2021-01-21 11:50:00 48.7 78.1 42.2 48.7 5.3 6.7 4.5 227.2 207.1 0.00 0.0488572 47.6
2021-01-21 11:55:00 49.0 80.7 43.3 49.0 4.6 6.0 3.7 208.2 224.5 0.00 0.0443016 47.7
2021-01-21 12:00:00 49.4 80.3 43.6 49.4 3.5 7.2 4.3 204.3 207.2 0.00 0.0548926 47.7
2021-01-21 12:05:00 49.4 80.0 43.5 49.4 3.0 5.3 3.7 231.2 208.7 0.00 0.0567604 47.8
2021-01-21 12:10:00 49.6 78.3 43.1 49.6 0.8 3.8 1.7 75.7 178.6 0.00 0.0674987 47.9
2021-01-21 12:15:00 49.6 80.1 43.7 49.6 2.4 4.2 2.7 250.0 221.8 0.00 0.0595811 47.9
2021-01-21 12:20:00 49.7 80.2 43.9 49.7 3.5 4.4 2.6 212.7 211.8 0.00 0.0633146 48.0
2021-01-21 12:25:00 49.5 78.7 43.2 49.5 1.0 4.6 2.3 138.5 168.4 0.00 0.0829450 48.1
2021-01-21 12:30:00 49.7 80.5 44.0 49.7 0.8 4.2 2.1 113.5 162.3 0.00 0.0790550 48.1
2021-01-21 12:35:00 50.0 77.3 43.2 50.0 0.0 3.0 1.2 89.0 76.1 0.00 0.0693120 48.2
2021-01-21 12:40:00 50.1 77.4 43.3 50.1 3.1 4.0 2.3 149.8 148.5 0.00 0.0621302 48.2
2021-01-21 12:45:00 50.0 78.9 43.7 50.0 3.7 3.7 2.3 198.4 153.8 0.00 0.0598259 48.3
2021-01-21 12:50:00 50.3 81.2 44.8 50.3 2.2 4.2 2.1 146.7 188.4 0.00 0.0697758 48.3
2021-01-21 12:55:00 50.6 77.7 43.9 50.6 2.8 5.6 3.6 209.4 212.6 0.00 0.0965046 48.4
2021-01-21 13:00:00 50.3 77.9 43.7 50.3 2.8 5.1 3.4 220.6 205.3 0.00 0.0596424 48.5
2021-01-21 13:05:00 50.5 81.5 45.1 50.5 2.4 4.6 2.3 211.1 196.5 0.00 0.0523411 48.5
2021-01-21 13:10:00 50.6 80.7 44.9 50.6 2.4 5.3 2.7 136.4 133.6 0.00 0.0451303 48.6
2021-01-21 13:15:00 50.5 80.7 44.8 50.5 2.6 3.8 2.6 224.2 150.4 0.00 0.0464276 48.6
2021-01-21 13:20:00 50.5 80.7 44.8 50.5 2.4 3.8 2.2 138.5 141.1 0.00 0.0332458 48.7
2021-01-21 13:25:00 50.5 81.4 45.0 50.5 3.3 6.0 3.0 112.4 124.4 0.00 0.0449226 48.7
2021-01-21 13:30:00 50.5 79.3 44.3 50.5 3.3 5.5 2.8 90.8 96.9 0.00 0.0788125 48.8
2021-01-21 13:35:00 51.2 78.7 44.8 51.2 1.2 3.5 1.5 288.0 102.6 0.00 0.0768716 48.9
2021-01-21 13:40:00 51.0 78.1 44.3 51.0 2.4 3.8 1.5 123.0 141.4 0.00 0.0640060 48.9
2021-01-21 13:45:00 51.0 80.4 45.2 51.0 5.1 5.1 3.5 49.7 84.8 0.00 0.0693271 49.0
2021-01-21 13:50:00 51.0 79.9 45.0 51.0 3.5 6.3 4.1 23.6 45.9 0.00 0.0620472 49.0
2021-01-21 13:55:00 51.1 78.6 44.6 51.1 1.2 3.0 1.3 149.1 103.7 0.00 0.0392179 49.1
2021-01-21 14:00:00 51.1 79.0 44.8 51.1 3.0 3.0 1.1 169.5 181.3 0.00 0.0378870 49.2
2021-01-21 14:05:00 51.2 78.2 44.6 51.2 1.7 3.5 1.8 135.9 163.5 0.00 0.0391318 49.2
2021-01-21 14:10:00 51.1 77.3 44.3 51.1 2.1 2.4 1.4 194.4 152.7 0.00 0.0372274 49.3
2021-01-21 14:15:00 51.1 79.0 44.8 51.1 3.1 3.1 1.9 163.1 199.2 0.00 0.0410622 49.3
2021-01-21 14:20:00 51.4 79.5 45.2 51.4 4.7 4.7 2.3 122.0 143.1 0.00 0.0441627 49.4
2021-01-21 14:25:00 51.5 79.0 45.2 51.5 1.5 5.8 2.1 200.0 199.1 0.00 0.0475431 49.4
2021-01-21 14:30:00 51.5 78.9 45.2 51.5 2.1 6.9 3.4 168.6 194.0 0.00 0.0447963 49.5
2021-01-21 14:35:00 51.3 79.8 45.3 51.3 2.2 3.3 2.3 126.6 142.1 0.00 0.0553390 49.5
2021-01-21 14:40:00 51.7 80.0 45.8 51.7 1.2 2.6 1.3 239.3 152.3 0.00 0.0695239 49.6
2021-01-21 14:45:00 52.2 79.2 45.9 52.2 2.4 4.4 2.3 118.6 154.2 0.00 0.1005377 49.6
2021-01-21 14:50:00 52.3 77.5 45.4 52.3 4.6 7.4 4.5 111.0 114.5 0.00 0.1527936 49.7
2021-01-21 14:55:00 53.0 78.2 46.3 53.0 5.5 9.6 4.4 126.9 124.6 0.00 0.1503513 49.7
2021-01-21 15:00:00 53.4 74.6 45.6 53.4 5.6 7.8 4.7 160.8 139.1 0.00 0.1291101 49.8
2021-01-21 15:05:00 53.2 76.5 46.0 53.2 3.5 9.0 5.6 121.3 118.8 0.00 0.0858499 49.8
2021-01-21 15:10:00 53.4 75.6 45.8 53.4 1.9 8.7 5.5 95.8 126.4 0.00 0.1307732 49.9
2021-01-21 15:15:00 53.5 74.8 45.7 53.5 3.1 6.7 3.6 156.2 136.5 0.00 0.0516105 49.9
2021-01-21 15:20:00 52.8 74.9 45.0 52.8 6.3 7.2 5.1 101.2 112.7 0.00 0.0601536 50.0
2021-01-21 15:25:00 53.1 75.5 45.6 53.1 2.8 8.1 2.9 107.1 125.2 0.00 0.0401430 50.0
2021-01-21 15:30:00 53.5 75.4 46.0 53.5 2.2 3.8 2.1 191.9 153.4 0.00 0.0654690 50.0
2021-01-21 15:35:00 54.1 71.7 45.2 54.1 2.2 4.9 2.5 122.2 176.1 0.00 0.0741788 50.1
2021-01-21 15:40:00 53.8 73.5 45.5 53.8 2.8 4.2 2.4 207.4 186.4 0.00 0.0320663 50.1
2021-01-21 15:45:00 53.4 75.0 45.7 53.4 1.5 4.0 2.1 120.9 148.8 0.00 0.0394480 50.2
2021-01-21 15:50:00 53.4 73.2 45.0 53.4 3.1 4.4 2.9 212.3 222.9 0.00 0.0560692 50.3
2021-01-21 15:55:00 53.0 75.5 45.4 53.0 3.0 5.5 3.6 204.7 209.1 0.00 0.0424785 50.3
2021-01-21 16:00:00 53.3 77.7 46.5 53.3 1.9 3.3 1.7 178.3 196.9 0.00 0.0352245 50.3
2021-01-21 16:05:00 53.1 76.7 46.0 53.1 2.2 5.3 3.0 181.3 186.4 0.00 0.0360227 50.4
2021-01-21 16:10:00 53.2 78.2 46.5 53.2 0.0 2.8 1.2 143.6 186.7 0.00 0.0388859 50.4
2021-01-21 16:15:00 53.4 75.6 45.9 53.4 3.0 4.2 1.5 119.5 134.5 0.00 0.0376195 50.5
2021-01-21 16:20:00 53.5 77.1 46.5 53.5 1.2 3.5 1.7 153.4 180.4 0.00 0.0334486 50.5
2021-01-21 16:25:00 53.1 76.9 46.1 53.1 2.2 2.8 1.7 138.7 149.4 0.00 0.0291829 50.5
2021-01-21 16:30:00 53.3 77.1 46.3 53.3 2.8 2.8 1.2 113.9 138.4 0.00 0.0287910 50.6
2021-01-21 16:35:00 53.6 76.8 46.5 53.6 2.8 3.3 1.7 152.8 140.4 0.00 0.0523198 50.6
2021-01-21 16:40:00 53.5 76.4 46.3 53.5 3.0 3.5 2.5 155.3 147.5 0.00 0.0319470 50.6
2021-01-21 16:45:00 52.9 78.5 46.4 52.9 0.0 3.3 1.8 274.6 152.7 0.00 0.0100815 50.7
2021-01-21 16:50:00 52.9 79.3 46.6 52.9 2.1 2.1 0.8 145.9 157.2 0.00 0.0096717 50.7
2021-01-21 16:55:00 52.3 80.1 46.4 52.3 0.0 3.3 1.6 160.9 139.4 0.00 0.0090505 50.8
2021-01-21 17:00:00 51.9 81.5 46.4 51.9 2.1 4.0 1.3 154.9 133.7 0.00 0.0072570 50.8
2021-01-21 17:05:00 51.7 82.0 46.3 51.7 2.1 3.0 2.0 145.4 127.2 0.00 0.0092700 50.8
2021-01-21 17:10:00 52.0 81.4 46.4 52.0 1.0 2.6 1.3 122.3 135.9 0.00 0.0139090 50.8
2021-01-21 17:15:00 52.0 81.3 46.5 52.0 2.8 3.5 1.6 127.2 114.9 0.00 0.0097949 50.8
2021-01-21 17:20:00 51.6 82.3 46.4 51.6 0.0 3.7 1.9 137.4 124.2 0.00 0.0039795 50.9
2021-01-21 17:25:00 51.3 82.8 46.3 51.3 1.9 2.8 0.7 140.8 128.7 0.00 0.0025377 50.9
2021-01-21 17:30:00 51.1 83.4 46.2 51.1 0.8 1.9 0.5 143.5 146.5 0.00 0.0013895 50.9
2021-01-21 17:35:00 51.2 83.8 46.5 51.2 0.0 0.8 0.1 175.2 144.3 0.00 0.0009371 50.9
2021-01-21 17:40:00 50.8 85.5 46.6 50.8 2.4 3.0 0.7 145.6 131.9 0.00 0.0005610 50.9
2021-01-21 17:45:00 50.5 85.5 46.3 50.5 0.8 2.6 1.4 65.9 130.3 0.00 0.0003419 50.9
2021-01-21 17:50:00 50.2 85.9 46.2 50.2 1.5 2.2 0.6 186.3 178.8 0.00 0.0001629 50.9
2021-01-21 17:55:00 49.7 85.7 45.6 49.7 0.0 2.4 1.2 151.1 192.8 0.00 0.0000664 50.9
2021-01-21 18:00:00 49.4 86.9 45.6 49.4 0.0 3.0 0.7 209.3 218.2 0.00 0.0000020 50.8
2021-01-21 18:05:00 49.3 88.5 46.0 49.3 1.9 2.8 1.1 246.9 226.6 0.00 0.0000000 50.8
2021-01-21 18:10:00 49.5 87.6 46.0 49.5 1.5 2.8 2.1 219.8 259.1 0.00 0.0000000 50.8
2021-01-21 18:15:00 49.6 87.4 46.0 49.6 0.0 2.1 0.7 162.8 187.9 0.00 0.0000000 50.8
2021-01-21 18:20:00 49.0 86.6 45.2 49.0 1.0 1.7 0.4 245.2 234.0 0.00 0.0000000 50.8
2021-01-21 18:25:00 48.8 88.8 45.6 48.8 0.0 1.2 0.2 134.8 248.9 0.00 0.0000000 50.7
2021-01-21 18:30:00 48.2 88.9 45.1 48.2 0.0 1.2 0.2 154.7 140.2 0.00 0.0000000 50.7
2021-01-21 18:35:00 47.9 90.4 45.2 47.9 0.0 0.0 0.0 156.6 0.0 0.00 0.0000000 50.6
2021-01-21 18:40:00 47.5 91.5 45.1 47.5 1.2 1.2 0.1 119.2 118.7 0.00 0.0000000 50.6
2021-01-21 18:45:00 47.1 91.6 44.8 47.1 1.2 1.7 0.7 101.5 119.4 0.00 0.0000000 50.6
2021-01-21 18:50:00 46.8 91.9 44.6 46.8 0.0 1.5 0.5 113.5 120.8 0.00 0.0000000 50.6
2021-01-21 18:55:00 47.0 93.5 45.2 47.0 1.0 1.0 0.0 132.5 132.5 0.00 0.0000000 50.5
2021-01-21 19:00:00 46.9 92.5 44.9 46.9 0.0 1.3 0.4 204.8 156.3 0.00 0.0000000 50.5
2021-01-21 19:05:00 46.6 93.2 44.7 46.6 0.0 2.1 0.7 150.7 170.2 0.00 0.0000000 50.5
2021-01-21 19:10:00 46.3 93.3 44.5 46.3 0.0 0.0 0.0 161.3 0.0 0.00 0.0000000 50.4
2021-01-21 19:15:00 46.0 93.8 44.3 46.0 0.0 0.0 0.0 183.6 0.0 0.00 0.0000000 50.3
2021-01-21 19:20:00 45.9 94.7 44.5 45.9 0.0 2.4 0.8 129.8 151.2 0.00 0.0000000 50.3
2021-01-21 19:25:00 45.9 94.8 44.5 45.9 0.0 0.8 0.1 114.1 140.4 0.00 0.0000000 50.3
2021-01-21 19:30:00 45.4 94.4 43.9 45.4 0.0 0.0 0.0 52.3 0.0 0.00 0.0000000 50.2
2021-01-21 19:35:00 45.4 95.8 44.3 45.4 0.0 1.0 0.1 217.2 188.6 0.00 0.0000000 50.1
2021-01-21 19:40:00 45.4 95.9 44.3 45.4 0.0 1.0 0.1 104.7 209.8 0.00 0.0000000 50.1
2021-01-21 19:45:00 45.5 96.4 44.5 45.5 1.3 3.0 1.1 166.4 127.4 0.00 0.0000000 50.0
2021-01-21 19:50:00 45.7 95.5 44.5 45.7 1.0 1.5 0.5 134.5 138.3 0.00 0.0000000 50.0
2021-01-21 19:55:00 45.5 94.6 44.1 45.5 0.0 1.2 0.6 157.9 178.3 0.00 0.0000000 49.9
2021-01-21 20:00:00 45.5 94.6 44.0 45.5 0.0 2.2 0.9 145.2 168.7 0.00 0.0000000 49.9
2021-01-21 20:05:00 45.3 93.9 43.6 45.3 0.8 1.3 0.5 239.3 132.9 0.00 0.0000000 49.8
2021-01-21 20:10:00 44.8 93.8 43.2 44.8 0.0 1.3 0.3 256.4 229.6 0.00 0.0000000 49.7
2021-01-21 20:15:00 44.8 95.4 43.6 44.8 0.0 0.0 0.0 181.5 0.0 0.00 0.0000000 49.7
2021-01-21 20:20:00 44.7 95.1 43.4 44.7 1.3 2.2 1.1 195.5 189.2 0.00 0.0000000 49.6
2021-01-21 20:25:00 44.7 95.1 43.4 44.7 0.8 1.9 0.7 124.3 161.3 0.00 0.0000000 49.6
2021-01-21 20:30:00 44.6 95.3 43.3 44.6 0.0 0.8 0.1 105.9 86.3 0.00 0.0000000 49.5
2021-01-21 20:35:00 45.0 97.4 44.3 45.0 4.4 6.0 1.9 177.8 186.6 0.00 0.0000000 49.5
2021-01-21 20:40:00 45.4 94.2 43.8 45.4 3.3 3.8 2.5 111.6 115.6 0.00 0.0000000 49.4
2021-01-21 20:45:00 46.3 93.7 44.5 46.3 2.6 4.2 2.9 96.9 110.2 0.00 0.0000000 49.4
2021-01-21 20:50:00 46.5 92.2 44.4 46.5 2.8 4.6 3.0 105.0 108.1 0.00 0.0000000 49.3
2021-01-21 20:55:00 46.4 91.3 44.0 46.4 2.2 4.0 2.5 104.1 105.5 0.00 0.0000000 49.3
2021-01-21 21:00:00 46.7 90.2 44.0 46.7 0.0 4.0 2.3 131.0 90.5 0.00 0.0000000 49.2
2021-01-21 21:05:00 46.7 89.3 43.8 46.7 0.0 2.8 1.8 51.5 56.6 0.00 0.0000000 49.1
2021-01-21 21:10:00 46.1 89.7 43.2 46.1 0.0 0.0 0.0 138.5 0.0 0.00 0.0000000 49.1
2021-01-21 21:15:00 45.5 92.3 43.4 45.5 3.5 3.5 0.5 138.4 133.1 0.00 0.0000000 49.0
2021-01-21 21:20:00 46.5 90.6 43.9 46.5 3.0 6.0 2.7 112.8 127.3 0.00 0.0000000 49.0
2021-01-21 21:25:00 46.9 89.6 44.0 46.9 3.8 4.6 2.8 119.1 124.4 0.00 0.0000000 48.9
2021-01-21 21:30:00 46.9 88.8 43.7 46.9 1.9 3.8 1.5 211.2 169.0 0.00 0.0000000 48.9
2021-01-21 21:35:00 46.5 89.2 43.5 46.5 1.7 4.4 2.0 133.6 179.3 0.00 0.0000000 48.8
2021-01-21 21:40:00 46.7 89.5 43.8 46.7 0.0 3.1 1.5 149.1 126.7 0.00 0.0000000 48.8
2021-01-21 21:45:00 46.9 89.2 43.8 46.9 0.8 3.7 0.9 163.4 120.5 0.00 0.0000000 48.7
2021-01-21 21:50:00 46.4 88.9 43.3 46.4 0.0 0.8 0.0 220.3 222.3 0.00 0.0000000 48.7
2021-01-21 21:55:00 45.9 89.8 43.1 45.9 0.0 2.4 0.9 159.1 205.9 0.00 0.0000000 48.6
2021-01-21 22:00:00 45.8 91.1 43.3 45.8 1.2 2.4 0.6 144.9 142.7 0.00 0.0000000 48.5
2021-01-21 22:05:00 45.3 91.6 43.0 45.3 1.7 2.2 1.0 139.1 137.2 0.00 0.0000000 48.5
2021-01-21 22:10:00 45.5 92.0 43.3 45.5 0.0 2.1 0.9 60.1 150.0 0.00 0.0000000 48.5
2021-01-21 22:15:00 45.0 92.0 42.8 45.0 0.0 0.0 0.0 35.1 0.0 0.00 0.0000000 48.4
2021-01-21 22:20:00 45.0 92.8 43.1 45.0 0.8 0.8 0.1 72.2 64.1 0.00 0.0000000 48.4
2021-01-21 22:25:00 45.5 92.2 43.4 45.5 1.2 2.1 1.0 68.0 82.6 0.00 0.0000000 48.3
2021-01-21 22:30:00 45.3 92.9 43.4 45.3 1.3 1.7 0.3 143.6 106.7 0.00 0.0000000 48.3
2021-01-21 22:35:00 45.3 92.4 43.2 45.3 0.8 3.1 1.2 298.9 196.0 0.00 0.0000000 48.2
2021-01-21 22:40:00 45.4 91.1 43.0 45.4 0.0 1.5 0.7 156.0 225.6 0.00 0.0000000 48.2
2021-01-21 22:45:00 45.1 91.1 42.7 45.1 0.0 0.0 0.0 185.1 0.0 0.00 0.0000000 48.1
2021-01-21 22:50:00 44.6 90.9 42.1 44.6 0.0 0.0 0.0 174.7 0.0 0.00 0.0000000 48.1
2021-01-21 22:55:00 43.6 93.1 41.8 43.6 3.3 3.8 1.5 308.9 314.8 0.00 0.0000000 48.0
2021-01-21 23:00:00 43.3 94.6 41.9 43.3 0.0 3.8 1.6 295.1 314.0 0.00 0.0000000 48.0
2021-01-21 23:05:00 43.0 95.4 41.8 43.0 2.1 4.9 2.7 318.5 307.6 0.00 0.0000000 47.9
2021-01-21 23:10:00 43.1 96.0 42.0 43.1 0.0 3.0 0.8 298.8 357.9 0.00 0.0000000 47.9
2021-01-21 23:15:00 43.2 96.1 42.2 43.2 0.0 0.0 0.0 178.4 0.0 0.00 0.0000000 47.9
2021-01-21 23:20:00 43.2 96.2 42.2 43.2 1.7 2.1 1.2 304.6 282.9 0.00 0.0000000 47.8
2021-01-21 23:25:00 42.3 96.4 41.4 42.3 0.0 1.9 1.3 21.4 342.8 0.00 0.0000000 47.8
2021-01-21 23:30:00 42.5 96.7 41.6 42.5 0.0 1.3 0.2 58.3 326.1 0.00 0.0000000 47.7
2021-01-21 23:35:00 42.4 96.7 41.6 42.4 0.0 0.8 0.0 166.5 142.9 0.00 0.0000000 47.7
2021-01-21 23:40:00 42.3 96.0 41.3 42.3 1.3 1.3 0.3 155.9 126.9 0.00 0.0000000 47.6
2021-01-21 23:45:00 41.8 96.4 40.8 41.8 0.0 1.7 0.9 177.5 139.3 0.00 0.0000000 47.6
2021-01-21 23:50:00 41.3 96.6 40.4 41.3 0.0 1.5 0.3 124.7 214.0 0.00 0.0000000 47.6
2021-01-21 23:55:00 41.2 97.6 40.6 41.2 3.1 3.3 0.8 190.9 194.2 0.00 0.0000000 47.5
2021-01-22 00:00:00 41.3 96.9 40.5 41.3 1.9 4.4 2.3 151.7 167.2 0.00 0.0000000 47.4
2021-01-22 00:05:00 41.2 97.6 40.6 41.2 0.0 2.8 1.0 241.6 149.1 0.00 0.0000000 47.4
2021-01-22 00:10:00 40.8 97.2 40.0 40.8 0.8 1.5 0.4 191.3 182.5 0.00 0.0000000 47.4
2021-01-22 00:15:00 40.7 97.3 40.0 40.7 0.0 2.8 1.1 239.9 179.8 0.00 0.0000000 47.3
2021-01-22 00:20:00 40.5 97.9 39.9 40.5 0.0 2.1 0.8 209.5 232.2 0.00 0.0000000 47.3
2021-01-22 00:25:00 40.4 98.0 39.9 40.4 0.0 2.4 1.6 247.1 228.9 0.00 0.0000000 47.2
2021-01-22 00:30:00 40.2 98.2 39.8 40.2 1.0 2.6 1.1 177.6 189.5 0.00 0.0000000 47.2
2021-01-22 00:35:00 40.1 98.0 39.5 40.1 0.0 1.2 0.2 127.5 173.6 0.00 0.0000000 47.1
2021-01-22 00:40:00 39.9 97.9 39.4 39.9 0.0 0.0 0.0 109.9 0.0 0.00 0.0000000 47.1
2021-01-22 00:45:00 39.9 98.1 39.4 39.9 2.8 3.5 1.2 197.5 164.7 0.00 0.0000000 47.1
2021-01-22 00:50:00 39.7 98.7 39.4 39.7 1.5 3.3 1.4 120.5 151.2 0.00 0.0000000 47.0
2021-01-22 00:55:00 40.4 99.8 40.4 40.4 2.6 4.4 1.8 135.0 139.5 0.00 0.0000000 47.0
2021-01-22 01:00:00 41.2 99.9 41.2 41.2 2.6 4.6 3.1 118.6 123.8 0.00 0.0000000 46.9
2021-01-22 01:05:00 41.2 99.8 41.1 41.2 1.2 2.8 1.8 97.4 134.4 0.00 0.0000000 46.9
2021-01-22 01:10:00 41.2 100.0 41.2 41.2 1.5 3.5 2.2 102.3 130.6 0.00 0.0000000 46.9
2021-01-22 01:15:00 41.1 100.0 41.1 41.1 0.8 4.6 1.8 141.2 150.7 0.00 0.0000000 46.8
2021-01-22 01:20:00 41.1 99.9 41.1 41.1 3.8 5.1 2.8 110.2 124.7 0.00 0.0000000 46.7
2021-01-22 01:25:00 41.4 100.0 41.4 41.4 2.4 5.5 3.8 136.9 127.0 0.00 0.0000000 46.7
2021-01-22 01:30:00 41.4 99.9 41.4 41.4 2.8 5.6 2.7 134.8 122.2 0.00 0.0000000 46.7
2021-01-22 01:35:00 41.6 100.0 41.6 41.6 5.3 5.5 3.1 111.0 122.6 0.00 0.0000000 46.6
2021-01-22 01:40:00 41.5 100.0 41.5 41.5 2.1 5.1 3.1 152.4 131.8 0.00 0.0000000 46.6
2021-01-22 01:45:00 41.8 100.0 41.8 41.8 2.4 3.0 1.7 159.2 141.4 0.00 0.0000000 46.5
2021-01-22 01:50:00 42.1 100.0 42.1 42.1 2.4 4.4 2.8 128.9 138.4 0.00 0.0000000 46.5
2021-01-22 01:55:00 42.2 100.0 42.2 42.2 2.6 3.7 2.6 123.9 143.6 0.00 0.0000000 46.5
2021-01-22 02:00:00 42.1 99.9 42.1 42.1 1.9 4.2 2.8 152.5 131.2 0.00 0.0000000 46.4
2021-01-22 02:05:00 42.1 100.0 42.1 42.1 1.9 3.1 2.3 109.7 125.5 0.00 0.0000000 46.4
2021-01-22 02:10:00 42.1 100.0 42.1 42.1 2.4 3.0 2.0 115.8 141.0 0.00 0.0000000 46.4
2021-01-22 02:15:00 42.1 100.0 42.1 42.1 1.9 4.2 2.8 153.4 135.0 0.00 0.0000000 46.3
2021-01-22 02:20:00 42.4 100.0 42.4 42.4 0.0 2.4 1.8 136.1 130.5 0.00 0.0000000 46.3
2021-01-22 02:25:00 42.2 99.9 42.2 42.2 2.1 4.0 1.9 163.0 123.4 0.00 0.0000000 46.3
2021-01-22 02:30:00 42.1 100.0 42.1 42.1 1.9 2.8 1.5 134.8 130.2 0.00 0.0000000 46.3
2021-01-22 02:35:00 41.6 100.0 41.6 41.6 2.1 3.1 2.1 140.7 118.7 0.00 0.0000000 46.2
2021-01-22 02:40:00 41.6 100.0 41.6 41.6 2.1 3.1 1.2 116.7 122.5 0.00 0.0000000 46.2
2021-01-22 02:45:00 41.2 100.0 41.2 41.2 2.8 3.8 2.1 115.1 117.2 0.00 0.0000000 46.2
2021-01-22 02:50:00 41.1 100.0 41.1 41.1 3.1 3.1 1.9 142.3 124.7 0.00 0.0000000 46.2
2021-01-22 02:55:00 41.0 100.0 41.0 41.0 1.2 3.0 1.8 124.1 124.1 0.00 0.0000000 46.2
2021-01-22 03:00:00 41.0 99.9 40.9 41.0 1.9 2.1 1.3 118.0 132.1 0.00 0.0000000 46.2
2021-01-22 03:05:00 41.0 100.0 41.0 41.0 2.1 2.4 1.0 113.0 116.6 0.00 0.0000000 46.2
2021-01-22 03:10:00 41.0 99.9 40.9 41.0 1.5 3.8 2.2 197.9 123.7 0.00 0.0000000 46.2
2021-01-22 03:15:00 41.0 100.0 41.0 41.0 0.0 1.5 0.4 175.7 125.5 0.00 0.0000000 46.2
2021-01-22 03:20:00 41.0 100.0 41.0 41.0 1.0 2.4 0.6 108.6 182.7 0.00 0.0000000 46.1
2021-01-22 03:25:00 40.6 99.9 40.6 40.6 0.0 1.7 0.7 161.2 171.3 0.00 0.0000000 46.1
2021-01-22 03:30:00 40.7 100.0 40.7 40.7 0.0 2.1 0.5 212.7 160.6 0.00 0.0000000 46.1
2021-01-22 03:35:00 40.7 100.0 40.7 40.7 0.0 0.0 0.0 105.0 0.0 0.00 0.0000000 46.1
2021-01-22 03:40:00 40.7 100.0 40.7 40.7 0.0 0.0 0.0 120.5 0.0 0.00 0.0000000 46.1
2021-01-22 03:45:00 40.7 100.0 40.7 40.7 0.0 1.2 0.2 165.8 148.8 0.00 0.0000000 46.1
2021-01-22 03:50:00 40.8 100.0 40.8 40.8 0.0 1.0 0.1 92.7 127.5 0.00 0.0000000 46.1
2021-01-22 03:55:00 40.8 100.0 40.8 40.8 0.0 0.0 0.0 92.0 0.0 0.00 0.0000000 46.1
2021-01-22 04:00:00 41.0 100.0 41.0 41.0 0.0 0.0 0.0 92.4 0.0 0.00 0.0000000 46.1
2021-01-22 04:05:00 41.0 99.9 41.0 41.0 0.0 1.5 0.2 158.8 146.6 0.00 0.0000000 46.1
2021-01-22 04:10:00 41.2 100.0 41.2 41.2 0.0 2.4 0.5 138.1 127.0 0.00 0.0000000 46.1
2021-01-22 04:15:00 41.0 99.9 41.0 41.0 0.0 0.8 0.0 226.2 196.4 0.00 0.0000000 46.1
2021-01-22 04:20:00 41.1 99.9 41.1 41.1 0.0 1.0 0.1 195.3 211.1 0.00 0.0000000 46.1
2021-01-22 04:25:00 40.9 100.0 40.9 40.9 0.0 1.5 0.5 133.8 144.1 0.00 0.0000000 46.1
2021-01-22 04:30:00 40.9 100.0 40.9 40.9 0.0 1.7 0.6 135.9 137.9 0.00 0.0000000 46.1
2021-01-22 04:35:00 40.6 100.0 40.6 40.6 0.0 0.0 0.0 7.4 0.0 0.00 0.0000000 46.1
2021-01-22 04:40:00 40.5 100.0 40.5 40.5 2.4 2.8 0.7 111.9 112.5 0.01 0.0000000 46.1
2021-01-22 04:45:00 40.7 100.0 40.7 40.7 0.0 2.2 0.5 146.8 109.0 0.00 0.0000000 46.1
2021-01-22 04:50:00 40.7 99.9 40.6 40.7 1.3 1.5 0.4 179.7 153.5 0.00 0.0000000 46.1
2021-01-22 04:55:00 40.7 100.0 40.7 40.7 0.0 1.2 0.1 204.9 176.0 0.00 0.0000000 46.1
2021-01-22 05:00:00 40.9 100.0 40.9 40.9 0.0 0.0 0.0 7.0 0.0 0.00 0.0000000 46.1
2021-01-22 05:05:00 40.8 100.0 40.8 40.8 1.9 2.2 0.8 124.3 104.9 0.00 0.0000000 46.1
2021-01-22 05:10:00 40.9 99.9 40.9 40.9 0.0 1.5 0.2 180.9 121.1 0.00 0.0000000 46.1
2021-01-22 05:15:00 41.1 100.0 41.1 41.1 0.0 1.2 0.2 113.8 111.4 0.00 0.0000000 46.1
2021-01-22 05:20:00 40.7 99.9 40.7 40.7 2.1 3.0 1.5 141.3 127.7 0.00 0.0000000 46.1
2021-01-22 05:25:00 40.7 100.0 40.7 40.7 0.0 3.1 1.8 125.8 122.7 0.00 0.0000000 46.1
2021-01-22 05:30:00 40.4 100.0 40.4 40.4 3.0 3.8 1.7 174.9 118.8 0.00 0.0000000 46.1
2021-01-22 05:35:00 40.6 100.0 40.6 40.6 1.7 2.6 1.7 131.6 129.4 0.00 0.0000000 46.1
2021-01-22 05:40:00 40.2 100.0 40.2 40.2 3.5 4.4 3.0 104.7 112.3 0.00 0.0000000 46.1
2021-01-22 05:45:00 40.4 100.0 40.4 40.4 2.8 3.8 2.2 115.8 126.1 0.00 0.0000000 46.1
2021-01-22 05:50:00 39.8 99.9 39.8 39.8 2.1 3.7 2.3 111.5 124.4 0.00 0.0000000 46.1
2021-01-22 05:55:00 39.6 99.9 39.5 39.6 2.2 3.7 2.2 108.5 99.3 0.00 0.0000000 46.1
2021-01-22 06:00:00 39.8 100.0 39.8 39.8 1.9 3.8 1.3 111.7 122.4 0.00 0.0000000 46.1
2021-01-22 06:05:00 39.6 100.0 39.6 39.6 0.0 2.8 1.0 115.7 109.6 0.00 0.0000000 46.1
2021-01-22 06:10:00 39.3 100.0 39.3 39.3 0.0 1.9 0.7 111.8 99.6 0.00 0.0000000 46.1
2021-01-22 06:15:00 39.1 100.0 39.1 39.1 0.0 0.0 0.0 312.7 0.0 0.00 0.0000000 46.1
2021-01-22 06:20:00 39.1 100.0 39.1 39.1 0.0 1.0 0.1 293.5 286.6 0.00 0.0000000 46.1
2021-01-22 06:25:00 39.2 100.0 39.2 39.2 0.0 0.8 0.0 6.3 0.0 0.00 0.0000000 46.1
2021-01-22 06:30:00 39.3 100.0 39.3 39.3 0.0 2.8 1.0 45.5 47.3 0.00 0.0000000 46.1
2021-01-22 06:35:00 39.1 99.9 39.1 39.1 0.0 1.0 0.1 32.7 7.8 0.00 0.0000000 46.1
2021-01-22 06:40:00 39.3 100.0 39.3 39.3 0.0 1.5 0.3 38.9 51.2 0.00 0.0000000 46.1

Data is courtesy of the NM Climate Center. DO NOT USE IN LEGAL PROCEEDINGS.